PWSweather.com
Personal Weather Stations
Station Observations
WD4JKH
Forsyth, GA 31029

Forsyth, GA 31029

Lat: 33.033225, Lon: -83.927995

Elevation: 709

Station Type: Davis Vantage VUE

High Low Average
Temperature 90.2°F32.3°C 71.3°F21.8°C 78.4°F25.8°C
Dew Point 75.0°F23.9°C 67.9°F19.9°C 70.3°F21.3°C
Winds 5.7 mph 9.2 kmh Calm Calm 1.0 mph SE1.6 kmh SE
Wind Gusts 14.0 mph22.5 kmh -- 4.0 mph6.4 kmh
Humidity 90% 53% 77%
Pressure 30.09 in1019.0 mb 29.97 in1014.9 mb -
Precipitation 0.01 in0.3 mm - -
Hour Temp Dew Point Humidity Winds Wind Gusts Pressure Precip Precip Rate Daily Precip Total
12:00 AM 79.4°F26.3°C 70.2°F21.2°C 73% Calm Calm 1.0 mph1.6 kmh 30.04 in1017.3 mb 0.00 in0.0 mm 0.00 in0.0 mm 0.00 in0.0 mm
12:05 AM 79.3°F26.3°C 70.5°F21.4°C 74% Calm Calm 1.0 mph1.6 kmh 30.04 in1017.3 mb 0.00 in0.0 mm 0.00 in0.0 mm 0.00 in0.0 mm
12:10 AM 79.4°F26.3°C 70.2°F21.2°C 73% 1.0 mph E1.6 kmh E 1.0 mph1.6 kmh 30.05 in1017.6 mb 0.00 in0.0 mm 0.00 in0.0 mm 0.00 in0.0 mm
12:15 AM 79.3°F26.3°C 70.5°F21.4°C 74% 1.6 mph E2.6 kmh E 2.0 mph3.2 kmh 30.04 in1017.3 mb 0.00 in0.0 mm 0.00 in0.0 mm 0.00 in0.0 mm
12:20 AM 79.3°F26.3°C 69.9°F21.1°C 73% 1.0 mph E1.6 kmh E 3.0 mph4.8 kmh 30.04 in1017.3 mb 0.00 in0.0 mm 0.00 in0.0 mm 0.00 in0.0 mm
12:25 AM 79.2°F26.2°C 70.4°F21.3°C 74% 1.1 mph E1.8 kmh E 3.0 mph4.8 kmh 30.04 in1017.3 mb 0.00 in0.0 mm 0.00 in0.0 mm 0.00 in0.0 mm
12:30 AM 79.1°F26.2°C 70.3°F21.3°C 74% 1.0 mph E1.6 kmh E 3.0 mph4.8 kmh 30.04 in1017.3 mb 0.00 in0.0 mm 0.00 in0.0 mm 0.00 in0.0 mm
12:35 AM 79.2°F26.2°C 70.4°F21.3°C 74% 1.0 mph E1.6 kmh E 2.0 mph3.2 kmh 30.04 in1017.3 mb 0.00 in0.0 mm 0.00 in0.0 mm 0.00 in0.0 mm
12:40 AM 79.0°F26.1°C 70.0°F21.1°C 74% Calm Calm 2.0 mph3.2 kmh 30.03 in1016.9 mb 0.00 in0.0 mm 0.00 in0.0 mm 0.00 in0.0 mm
12:45 AM 78.8°F26.0°C 70.0°F21.1°C 74% Calm Calm 1.0 mph1.6 kmh 30.03 in1016.9 mb 0.00 in0.0 mm 0.00 in0.0 mm 0.00 in0.0 mm
12:50 AM 78.6°F25.9°C 69.8°F21.0°C 74% Calm Calm 1.0 mph1.6 kmh 30.04 in1017.3 mb 0.00 in0.0 mm 0.00 in0.0 mm 0.00 in0.0 mm
12:55 AM 78.3°F25.7°C 69.9°F21.1°C 75% Calm Calm 1.0 mph1.6 kmh 30.04 in1017.3 mb 0.00 in0.0 mm 0.00 in0.0 mm 0.00 in0.0 mm
01:00 AM 78.0°F25.6°C 70.0°F21.1°C 76% Calm Calm 1.0 mph1.6 kmh 30.04 in1017.3 mb 0.00 in0.0 mm 0.00 in0.0 mm 0.00 in0.0 mm
01:05 AM 77.7°F25.4°C 69.7°F20.9°C 76% Calm Calm -- 30.04 in1017.3 mb 0.00 in0.0 mm 0.00 in0.0 mm 0.00 in0.0 mm
01:10 AM 77.4°F25.2°C 69.6°F20.9°C 77% Calm Calm -- 30.04 in1017.3 mb 0.00 in0.0 mm 0.00 in0.0 mm 0.00 in0.0 mm
01:15 AM 77.3°F25.2°C 69.3°F20.7°C 76% Calm Calm -- 30.04 in1017.3 mb 0.00 in0.0 mm 0.00 in0.0 mm 0.00 in0.0 mm
01:20 AM 77.0°F25.0°C 69.4°F20.8°C 77% Calm Calm -- 30.03 in1016.9 mb 0.00 in0.0 mm 0.00 in0.0 mm 0.00 in0.0 mm
01:25 AM 76.8°F24.9°C 69.2°F20.7°C 77% Calm Calm -- 30.03 in1016.9 mb 0.00 in0.0 mm 0.00 in0.0 mm 0.00 in0.0 mm
01:30 AM 76.7°F24.8°C 69.1°F20.6°C 77% Calm Calm -- 30.03 in1016.9 mb 0.00 in0.0 mm 0.00 in0.0 mm 0.00 in0.0 mm
01:35 AM 76.5°F24.7°C 69.3°F20.7°C 78% 1.0 mph WSW1.6 kmh WSW 1.0 mph1.6 kmh 30.03 in1016.9 mb 0.00 in0.0 mm 0.00 in0.0 mm 0.00 in0.0 mm
01:40 AM 76.6°F24.8°C 69.4°F20.8°C 78% 1.5 mph WNW2.4 kmh WNW 2.0 mph3.2 kmh 30.02 in1016.6 mb 0.00 in0.0 mm 0.00 in0.0 mm 0.00 in0.0 mm
01:45 AM 76.6°F24.8°C 69.6°F20.9°C 79% 1.0 mph WNW1.6 kmh WNW 2.0 mph3.2 kmh 30.02 in1016.6 mb 0.00 in0.0 mm 0.00 in0.0 mm 0.00 in0.0 mm
01:50 AM 76.4°F24.7°C 69.4°F20.8°C 79% 1.0 mph WSW1.6 kmh WSW 2.0 mph3.2 kmh 30.02 in1016.6 mb 0.00 in0.0 mm 0.00 in0.0 mm 0.00 in0.0 mm
01:55 AM 76.2°F24.6°C 69.3°F20.7°C 79% Calm Calm 2.0 mph3.2 kmh 30.02 in1016.6 mb 0.00 in0.0 mm 0.00 in0.0 mm 0.00 in0.0 mm
02:00 AM 76.0°F24.4°C 69.5°F20.8°C 80% Calm Calm 2.0 mph3.2 kmh 30.02 in1016.6 mb 0.00 in0.0 mm 0.00 in0.0 mm 0.00 in0.0 mm
02:05 AM 75.8°F24.3°C 69.3°F20.7°C 80% Calm Calm 1.0 mph1.6 kmh 30.02 in1016.6 mb 0.00 in0.0 mm 0.00 in0.0 mm 0.00 in0.0 mm
02:10 AM 75.5°F24.2°C 69.3°F20.7°C 81% Calm Calm 1.0 mph1.6 kmh 30.02 in1016.6 mb 0.00 in0.0 mm 0.00 in0.0 mm 0.00 in0.0 mm
02:15 AM 75.2°F24.0°C 69.1°F20.6°C 81% Calm Calm 1.0 mph1.6 kmh 30.02 in1016.6 mb 0.00 in0.0 mm 0.00 in0.0 mm 0.00 in0.0 mm
02:20 AM 75.3°F24.1°C 69.2°F20.7°C 81% Calm Calm -- 30.02 in1016.6 mb 0.00 in0.0 mm 0.00 in0.0 mm 0.00 in0.0 mm
02:25 AM 75.6°F24.2°C 69.1°F20.6°C 80% Calm Calm -- 30.02 in1016.6 mb 0.00 in0.0 mm 0.00 in0.0 mm 0.00 in0.0 mm
02:30 AM 75.4°F24.1°C 69.6°F20.9°C 82% Calm Calm 1.0 mph1.6 kmh 30.02 in1016.6 mb 0.00 in0.0 mm 0.00 in0.0 mm 0.00 in0.0 mm
02:35 AM 75.0°F23.9°C 69.5°F20.8°C 83% Calm Calm 1.0 mph1.6 kmh 30.02 in1016.6 mb 0.00 in0.0 mm 0.00 in0.0 mm 0.00 in0.0 mm
02:40 AM 74.7°F23.7°C 69.5°F20.8°C 84% Calm Calm 1.0 mph1.6 kmh 30.02 in1016.6 mb 0.00 in0.0 mm 0.00 in0.0 mm 0.00 in0.0 mm
02:45 AM 74.5°F23.6°C 69.7°F20.9°C 85% Calm Calm 1.0 mph1.6 kmh 30.02 in1016.6 mb 0.00 in0.0 mm 0.00 in0.0 mm 0.00 in0.0 mm
02:50 AM 74.4°F23.6°C 69.6°F20.9°C 85% Calm Calm 1.0 mph1.6 kmh 30.02 in1016.6 mb 0.00 in0.0 mm 0.00 in0.0 mm 0.00 in0.0 mm
02:55 AM 74.6°F23.7°C 69.8°F21.0°C 85% 1.9 mph ENE3.1 kmh ENE 3.0 mph4.8 kmh 30.02 in1016.6 mb 0.00 in0.0 mm 0.00 in0.0 mm 0.00 in0.0 mm
03:00 AM 74.7°F23.7°C 69.6°F20.9°C 84% 1.8 mph E2.9 kmh E 3.0 mph4.8 kmh 30.02 in1016.6 mb 0.00 in0.0 mm 0.00 in0.0 mm 0.00 in0.0 mm
03:05 AM 74.7°F23.7°C 69.3°F20.7°C 83% 1.5 mph ENE2.4 kmh ENE 3.0 mph4.8 kmh 30.01 in1016.3 mb 0.00 in0.0 mm 0.00 in0.0 mm 0.00 in0.0 mm
03:10 AM 74.7°F23.7°C 69.3°F20.7°C 83% 1.6 mph NE2.6 kmh NE 3.0 mph4.8 kmh 30.01 in1016.3 mb 0.00 in0.0 mm 0.00 in0.0 mm 0.00 in0.0 mm
03:15 AM 74.6°F23.7°C 69.2°F20.7°C 83% Calm Calm 3.0 mph4.8 kmh 30.02 in1016.6 mb 0.00 in0.0 mm 0.00 in0.0 mm 0.00 in0.0 mm
03:20 AM 74.5°F23.6°C 69.1°F20.6°C 83% Calm Calm 3.0 mph4.8 kmh 30.01 in1016.3 mb 0.00 in0.0 mm 0.00 in0.0 mm 0.00 in0.0 mm
03:25 AM 74.4°F23.6°C 69.0°F20.6°C 83% 1.0 mph ENE1.6 kmh ENE 2.0 mph3.2 kmh 30.01 in1016.3 mb 0.00 in0.0 mm 0.00 in0.0 mm 0.00 in0.0 mm
03:30 AM 74.4°F23.6°C 69.0°F20.6°C 83% 1.0 mph NE1.6 kmh NE 1.0 mph1.6 kmh 30.01 in1016.3 mb 0.00 in0.0 mm 0.00 in0.0 mm 0.00 in0.0 mm
03:35 AM 74.5°F23.6°C 69.0°F20.6°C 83% Calm Calm 1.0 mph1.6 kmh 30.01 in1016.3 mb 0.00 in0.0 mm 0.00 in0.0 mm 0.00 in0.0 mm
03:40 AM 74.4°F23.6°C 69.0°F20.6°C 83% 1.4 mph NE2.3 kmh NE 2.0 mph3.2 kmh 30.01 in1016.3 mb 0.00 in0.0 mm 0.00 in0.0 mm 0.00 in0.0 mm
03:45 AM 74.3°F23.5°C 69.1°F20.6°C 84% Calm Calm 2.0 mph3.2 kmh 30.01 in1016.3 mb 0.00 in0.0 mm 0.00 in0.0 mm 0.00 in0.0 mm
03:50 AM 74.0°F23.3°C 68.9°F20.5°C 84% 1.0 mph NE1.6 kmh NE 2.0 mph3.2 kmh 30.01 in1016.3 mb 0.00 in0.0 mm 0.00 in0.0 mm 0.00 in0.0 mm
03:55 AM 73.7°F23.2°C 69.3°F20.7°C 86% Calm Calm 2.0 mph3.2 kmh 30.01 in1016.3 mb 0.00 in0.0 mm 0.00 in0.0 mm 0.00 in0.0 mm
04:00 AM 73.5°F23.1°C 69.1°F20.6°C 86% 1.0 mph NE1.6 kmh NE 1.0 mph1.6 kmh 30.01 in1016.3 mb 0.00 in0.0 mm 0.00 in0.0 mm 0.00 in0.0 mm
04:04 AM 73.5°F23.1°C 68.7°F20.4°C 85% 1.0 mph E1.6 kmh E 1.0 mph1.6 kmh 30.00 in1015.9 mb 0.00 in0.0 mm 0.00 in0.0 mm 0.00 in0.0 mm
04:09 AM 73.7°F23.2°C 68.6°F20.3°C 84% 1.1 mph E1.8 kmh E 2.0 mph3.2 kmh 30.00 in1015.9 mb 0.00 in0.0 mm 0.00 in0.0 mm 0.00 in0.0 mm
04:14 AM 73.7°F23.2°C 68.6°F20.3°C 84% Calm Calm 2.0 mph3.2 kmh 30.00 in1015.9 mb 0.00 in0.0 mm 0.00 in0.0 mm 0.00 in0.0 mm
04:19 AM 73.6°F23.1°C 68.5°F20.3°C 84% Calm Calm 2.0 mph3.2 kmh 30.00 in1015.9 mb 0.00 in0.0 mm 0.00 in0.0 mm 0.00 in0.0 mm
04:24 AM 73.4°F23.0°C 68.3°F20.2°C 84% Calm Calm 2.0 mph3.2 kmh 30.00 in1015.9 mb 0.00 in0.0 mm 0.00 in0.0 mm 0.00 in0.0 mm
04:29 AM 73.3°F22.9°C 68.6°F20.3°C 85% Calm Calm -- 30.00 in1015.9 mb 0.00 in0.0 mm 0.00 in0.0 mm 0.00 in0.0 mm
04:34 AM 73.1°F22.8°C 68.0°F20.0°C 84% Calm Calm -- 30.00 in1015.9 mb 0.00 in0.0 mm 0.00 in0.0 mm 0.00 in0.0 mm
04:39 AM 73.2°F22.9°C 68.1°F20.1°C 84% Calm Calm -- 30.00 in1015.9 mb 0.00 in0.0 mm 0.00 in0.0 mm 0.00 in0.0 mm
04:44 AM 73.2°F22.9°C 68.1°F20.1°C 84% Calm Calm -- 30.00 in1015.9 mb 0.00 in0.0 mm 0.00 in0.0 mm 0.00 in0.0 mm
04:49 AM 73.2°F22.9°C 68.5°F20.3°C 85% Calm Calm -- 30.00 in1015.9 mb 0.00 in0.0 mm 0.00 in0.0 mm 0.00 in0.0 mm
04:54 AM 73.2°F22.9°C 68.5°F20.3°C 85% Calm Calm -- 30.00 in1015.9 mb 0.00 in0.0 mm 0.00 in0.0 mm 0.00 in0.0 mm
04:59 AM 73.5°F23.1°C 68.4°F20.2°C 84% Calm Calm -- 30.00 in1015.9 mb 0.00 in0.0 mm 0.00 in0.0 mm 0.00 in0.0 mm
05:04 AM 73.5°F23.1°C 68.7°F20.4°C 85% 1.0 mph E1.6 kmh E 1.0 mph1.6 kmh 30.00 in1015.9 mb 0.00 in0.0 mm 0.00 in0.0 mm 0.00 in0.0 mm
05:09 AM 73.1°F22.8°C 68.4°F20.2°C 85% Calm Calm 1.0 mph1.6 kmh 30.01 in1016.3 mb 0.00 in0.0 mm 0.00 in0.0 mm 0.00 in0.0 mm
05:14 AM 72.7°F22.6°C 68.3°F20.2°C 86% Calm Calm 1.0 mph1.6 kmh 30.01 in1016.3 mb 0.00 in0.0 mm 0.00 in0.0 mm 0.00 in0.0 mm
05:19 AM 72.2°F22.3°C 68.4°F20.2°C 88% Calm Calm 1.0 mph1.6 kmh 30.01 in1016.3 mb 0.00 in0.0 mm 0.00 in0.0 mm 0.00 in0.0 mm
05:24 AM 71.8°F22.1°C 68.1°F20.1°C 88% Calm Calm -- 30.01 in1016.3 mb 0.00 in0.0 mm 0.00 in0.0 mm 0.00 in0.0 mm
05:29 AM 71.6°F22.0°C 68.2°F20.1°C 89% Calm Calm -- 30.02 in1016.6 mb 0.00 in0.0 mm 0.00 in0.0 mm 0.00 in0.0 mm
05:34 AM 71.6°F22.0°C 68.2°F20.1°C 89% 1.0 mph WSW1.6 kmh WSW 1.0 mph1.6 kmh 30.02 in1016.6 mb 0.00 in0.0 mm 0.00 in0.0 mm 0.00 in0.0 mm
05:39 AM 71.5°F21.9°C 68.4°F20.2°C 90% 1.3 mph WSW2.1 kmh WSW 2.0 mph3.2 kmh 30.02 in1016.6 mb 0.00 in0.0 mm 0.00 in0.0 mm 0.00 in0.0 mm
05:44 AM 71.5°F21.9°C 68.4°F20.2°C 90% Calm Calm 2.0 mph3.2 kmh 30.02 in1016.6 mb 0.00 in0.0 mm 0.00 in0.0 mm 0.00 in0.0 mm
05:49 AM 71.3°F21.8°C 68.2°F20.1°C 90% 1.0 mph SW1.6 kmh SW 2.0 mph3.2 kmh 30.02 in1016.6 mb 0.00 in0.0 mm 0.00 in0.0 mm 0.00 in0.0 mm
05:54 AM 71.4°F21.9°C 68.3°F20.2°C 90% 1.2 mph W1.9 kmh W 2.0 mph3.2 kmh 30.02 in1016.6 mb 0.00 in0.0 mm 0.00 in0.0 mm 0.00 in0.0 mm
05:59 AM 71.6°F22.0°C 68.5°F20.3°C 90% Calm Calm 2.0 mph3.2 kmh 30.03 in1016.9 mb 0.00 in0.0 mm 0.00 in0.0 mm 0.00 in0.0 mm
06:04 AM 71.7°F22.1°C 68.6°F20.3°C 90% Calm Calm 2.0 mph3.2 kmh 30.03 in1016.9 mb 0.00 in0.0 mm 0.00 in0.0 mm 0.00 in0.0 mm
06:09 AM 71.8°F22.1°C 68.4°F20.2°C 89% Calm Calm 2.0 mph3.2 kmh 30.03 in1016.9 mb 0.00 in0.0 mm 0.00 in0.0 mm 0.00 in0.0 mm
06:14 AM 71.9°F22.2°C 68.5°F20.3°C 89% 1.0 mph W1.6 kmh W 1.0 mph1.6 kmh 30.03 in1016.9 mb 0.00 in0.0 mm 0.00 in0.0 mm 0.00 in0.0 mm
06:19 AM 72.1°F22.3°C 68.7°F20.4°C 89% 1.0 mph W1.6 kmh W 1.0 mph1.6 kmh 30.03 in1016.9 mb 0.00 in0.0 mm 0.00 in0.0 mm 0.00 in0.0 mm
06:24 AM 72.2°F22.3°C 68.8°F20.4°C 89% 1.0 mph W1.6 kmh W 1.0 mph1.6 kmh 30.04 in1017.3 mb 0.00 in0.0 mm 0.00 in0.0 mm 0.00 in0.0 mm
06:29 AM 72.5°F22.5°C 69.1°F20.6°C 89% Calm Calm 1.0 mph1.6 kmh 30.04 in1017.3 mb 0.00 in0.0 mm 0.00 in0.0 mm 0.00 in0.0 mm
06:34 AM 72.9°F22.7°C 69.1°F20.6°C 88% Calm Calm 1.0 mph1.6 kmh 30.04 in1017.3 mb 0.00 in0.0 mm 0.00 in0.0 mm 0.00 in0.0 mm
06:39 AM 73.3°F22.9°C 69.5°F20.8°C 88% Calm Calm 1.0 mph1.6 kmh 30.04 in1017.3 mb 0.00 in0.0 mm 0.00 in0.0 mm 0.00 in0.0 mm
06:44 AM 73.7°F23.2°C 69.6°F20.9°C 87% 1.0 mph NNE1.6 kmh NNE 1.0 mph1.6 kmh 30.05 in1017.6 mb 0.00 in0.0 mm 0.00 in0.0 mm 0.00 in0.0 mm
06:49 AM 73.6°F23.1°C 69.2°F20.7°C 86% 1.0 mph N1.6 kmh N 1.0 mph1.6 kmh 30.05 in1017.6 mb 0.00 in0.0 mm 0.00 in0.0 mm 0.00 in0.0 mm
06:54 AM 74.0°F23.3°C 69.6°F20.9°C 86% Calm Calm 1.0 mph1.6 kmh 30.05 in1017.6 mb 0.00 in0.0 mm 0.00 in0.0 mm 0.00 in0.0 mm
06:59 AM 74.3°F23.5°C 69.5°F20.8°C 85% 1.0 mph N1.6 kmh N 1.0 mph1.6 kmh 30.05 in1017.6 mb 0.00 in0.0 mm 0.00 in0.0 mm 0.00 in0.0 mm
07:04 AM 74.6°F23.7°C 69.5°F20.8°C 84% Calm Calm 1.0 mph1.6 kmh 30.05 in1017.6 mb 0.00 in0.0 mm 0.00 in0.0 mm 0.00 in0.0 mm
07:09 AM 75.1°F23.9°C 69.9°F21.1°C 84% 1.0 mph NE1.6 kmh NE 1.0 mph1.6 kmh 30.05 in1017.6 mb 0.00 in0.0 mm 0.00 in0.0 mm 0.00 in0.0 mm
07:14 AM 75.0°F23.9°C 69.5°F20.8°C 83% 1.0 mph NE1.6 kmh NE 3.0 mph4.8 kmh 30.05 in1017.6 mb 0.00 in0.0 mm 0.00 in0.0 mm 0.00 in0.0 mm
07:19 AM 74.7°F23.7°C 69.2°F20.7°C 83% 1.7 mph NE2.7 kmh NE 3.0 mph4.8 kmh 30.05 in1017.6 mb 0.00 in0.0 mm 0.00 in0.0 mm 0.00 in0.0 mm
07:24 AM 74.6°F23.7°C 69.5°F20.8°C 84% 1.4 mph NE2.3 kmh NE 3.0 mph4.8 kmh 30.06 in1017.9 mb 0.00 in0.0 mm 0.00 in0.0 mm 0.00 in0.0 mm
07:29 AM 74.7°F23.7°C 69.3°F20.7°C 83% 1.8 mph NE2.9 kmh NE 3.0 mph4.8 kmh 30.06 in1017.9 mb 0.00 in0.0 mm 0.00 in0.0 mm 0.00 in0.0 mm
07:34 AM 75.0°F23.9°C 69.5°F20.8°C 83% 2.4 mph NE3.9 kmh NE 4.0 mph6.4 kmh 30.06 in1017.9 mb 0.00 in0.0 mm 0.00 in0.0 mm 0.00 in0.0 mm
07:39 AM 75.4°F24.1°C 69.9°F21.1°C 83% 1.0 mph NE1.6 kmh NE 4.0 mph6.4 kmh 30.06 in1017.9 mb 0.00 in0.0 mm 0.00 in0.0 mm 0.00 in0.0 mm
07:44 AM 76.1°F24.5°C 70.3°F21.3°C 82% 1.0 mph NE1.6 kmh NE 4.0 mph6.4 kmh 30.06 in1017.9 mb 0.00 in0.0 mm 0.00 in0.0 mm 0.00 in0.0 mm
07:49 AM 76.7°F24.8°C 70.5°F21.4°C 81% 1.6 mph E2.6 kmh E 4.0 mph6.4 kmh 30.06 in1017.9 mb 0.00 in0.0 mm 0.00 in0.0 mm 0.00 in0.0 mm
07:54 AM 76.6°F24.8°C 70.1°F21.2°C 80% Calm Calm 4.0 mph6.4 kmh 30.06 in1017.9 mb 0.00 in0.0 mm 0.00 in0.0 mm 0.00 in0.0 mm
07:59 AM 77.2°F25.1°C 70.7°F21.5°C 80% 1.0 mph NE1.6 kmh NE 4.0 mph6.4 kmh 30.06 in1017.9 mb 0.00 in0.0 mm 0.00 in0.0 mm 0.00 in0.0 mm
08:04 AM 77.3°F25.2°C 70.3°F21.3°C 79% 2.5 mph E4.0 kmh E 4.0 mph6.4 kmh 30.06 in1017.9 mb 0.00 in0.0 mm 0.00 in0.0 mm 0.00 in0.0 mm
08:09 AM 76.7°F24.8°C 69.8°F21.0°C 79% 4.5 mph ENE7.2 kmh ENE 7.0 mph11.3 kmh 30.07 in1018.3 mb 0.00 in0.0 mm 0.00 in0.0 mm 0.00 in0.0 mm
08:14 AM 76.7°F24.8°C 70.5°F21.4°C 81% 1.9 mph NE3.1 kmh NE 7.0 mph11.3 kmh 30.07 in1018.3 mb 0.00 in0.0 mm 0.00 in0.0 mm 0.00 in0.0 mm
08:19 AM 76.9°F24.9°C 70.4°F21.3°C 80% 3.7 mph NE6.0 kmh NE 8.0 mph12.9 kmh 30.07 in1018.3 mb 0.00 in0.0 mm 0.00 in0.0 mm 0.00 in0.0 mm
08:24 AM 76.8°F24.9°C 70.6°F21.4°C 81% 3.2 mph NE5.1 kmh NE 8.0 mph12.9 kmh 30.07 in1018.3 mb 0.00 in0.0 mm 0.00 in0.0 mm 0.00 in0.0 mm
08:29 AM 77.0°F25.0°C 70.1°F21.2°C 79% 3.8 mph NE6.1 kmh NE 8.0 mph12.9 kmh 30.07 in1018.3 mb 0.00 in0.0 mm 0.00 in0.0 mm 0.00 in0.0 mm
08:34 AM 77.7°F25.4°C 70.8°F21.6°C 79% 1.0 mph N1.6 kmh N 8.0 mph12.9 kmh 30.08 in1018.6 mb 0.00 in0.0 mm 0.00 in0.0 mm 0.00 in0.0 mm
08:39 AM 78.0°F25.6°C 70.3°F21.3°C 77% 3.8 mph NE6.1 kmh NE 8.0 mph12.9 kmh 30.08 in1018.6 mb 0.00 in0.0 mm 0.00 in0.0 mm 0.00 in0.0 mm
08:44 AM 78.0°F25.6°C 70.7°F21.5°C 78% 3.6 mph NE5.8 kmh NE 8.0 mph12.9 kmh 30.08 in1018.6 mb 0.00 in0.0 mm 0.00 in0.0 mm 0.00 in0.0 mm
08:49 AM 78.6°F25.9°C 70.6°F21.4°C 76% 1.9 mph N3.1 kmh N 8.0 mph12.9 kmh 30.08 in1018.6 mb 0.00 in0.0 mm 0.00 in0.0 mm 0.00 in0.0 mm
08:54 AM 78.3°F25.7°C 70.6°F21.4°C 77% 3.2 mph NE5.1 kmh NE 8.0 mph12.9 kmh 30.08 in1018.6 mb 0.00 in0.0 mm 0.00 in0.0 mm 0.00 in0.0 mm
08:59 AM 78.5°F25.8°C 70.8°F21.6°C 77% 1.8 mph NE2.9 kmh NE 8.0 mph12.9 kmh 30.08 in1018.6 mb 0.00 in0.0 mm 0.00 in0.0 mm 0.00 in0.0 mm
09:03 AM 78.8°F26.0°C 70.8°F21.6°C 76% 2.4 mph NE3.9 kmh NE 6.0 mph9.7 kmh 30.08 in1018.6 mb 0.00 in0.0 mm 0.00 in0.0 mm 0.00 in0.0 mm
09:08 AM 79.2°F26.2°C 71.0°F21.7°C 76% 1.9 mph NNE3.1 kmh NNE 6.0 mph9.7 kmh 30.08 in1018.6 mb 0.00 in0.0 mm 0.00 in0.0 mm 0.00 in0.0 mm
09:13 AM 79.0°F26.1°C 70.9°F21.6°C 76% 2.5 mph ENE4.0 kmh ENE 7.0 mph11.3 kmh 30.08 in1018.6 mb 0.00 in0.0 mm 0.00 in0.0 mm 0.00 in0.0 mm
09:18 AM 79.1°F26.2°C 71.4°F21.9°C 77% 2.0 mph ENE3.2 kmh ENE 7.0 mph11.3 kmh 30.09 in1019.0 mb 0.00 in0.0 mm 0.00 in0.0 mm 0.00 in0.0 mm
09:23 AM 79.3°F26.3°C 71.2°F21.8°C 76% 1.0 mph N1.6 kmh N 7.0 mph11.3 kmh 30.08 in1018.6 mb 0.00 in0.0 mm 0.00 in0.0 mm 0.00 in0.0 mm
09:28 AM 80.0°F26.7°C 72.3°F22.4°C 77% 1.0 mph NE1.6 kmh NE 5.0 mph8.0 kmh 30.08 in1018.6 mb 0.00 in0.0 mm 0.00 in0.0 mm 0.00 in0.0 mm
09:33 AM 80.9°F27.2°C 72.0°F22.2°C 74% 1.3 mph NNE2.1 kmh NNE 5.0 mph8.0 kmh 30.08 in1018.6 mb 0.00 in0.0 mm 0.00 in0.0 mm 0.00 in0.0 mm
09:38 AM 81.2°F27.3°C 71.1°F21.7°C 71% 3.1 mph NE5.0 kmh NE 5.0 mph8.0 kmh 30.09 in1019.0 mb 0.00 in0.0 mm 0.00 in0.0 mm 0.00 in0.0 mm
09:43 AM 80.9°F27.2°C 71.4°F21.9°C 73% 1.0 mph ESE1.6 kmh ESE 5.0 mph8.0 kmh 30.08 in1018.6 mb 0.00 in0.0 mm 0.00 in0.0 mm 0.00 in0.0 mm
09:48 AM 81.7°F27.6°C 72.4°F22.4°C 73% Calm Calm 5.0 mph8.0 kmh 30.08 in1018.6 mb 0.00 in0.0 mm 0.00 in0.0 mm 0.00 in0.0 mm
09:53 AM 81.8°F27.7°C 72.1°F22.3°C 72% 1.6 mph NE2.6 kmh NE 5.0 mph8.0 kmh 30.08 in1018.6 mb 0.00 in0.0 mm 0.00 in0.0 mm 0.00 in0.0 mm
09:58 AM 81.3°F27.4°C 73.2°F22.9°C 76% Calm Calm 3.0 mph4.8 kmh 30.08 in1018.6 mb 0.00 in0.0 mm 0.00 in0.0 mm 0.00 in0.0 mm
10:03 AM 81.3°F27.4°C 73.2°F22.9°C 76% 1.2 mph NE1.9 kmh NE 3.0 mph4.8 kmh 30.08 in1018.6 mb 0.00 in0.0 mm 0.00 in0.0 mm 0.00 in0.0 mm
10:08 AM 80.8°F27.1°C 72.3°F22.4°C 75% 1.9 mph NE3.1 kmh NE 3.0 mph4.8 kmh 30.08 in1018.6 mb 0.00 in0.0 mm 0.00 in0.0 mm 0.00 in0.0 mm
10:13 AM 80.7°F27.1°C 72.2°F22.3°C 75% 1.9 mph NE3.1 kmh NE 3.0 mph4.8 kmh 30.09 in1019.0 mb 0.00 in0.0 mm 0.00 in0.0 mm 0.00 in0.0 mm
10:18 AM 80.8°F27.1°C 72.7°F22.6°C 76% 1.1 mph E1.8 kmh E 3.0 mph4.8 kmh 30.09 in1019.0 mb 0.00 in0.0 mm 0.00 in0.0 mm 0.00 in0.0 mm
10:23 AM 81.4°F27.4°C 72.5°F22.5°C 74% 2.0 mph NE3.2 kmh NE 3.0 mph4.8 kmh 30.09 in1019.0 mb 0.00 in0.0 mm 0.00 in0.0 mm 0.00 in0.0 mm
10:28 AM 82.0°F27.8°C 73.1°F22.8°C 74% 1.2 mph E1.9 kmh E 4.0 mph6.4 kmh 30.09 in1019.0 mb 0.00 in0.0 mm 0.00 in0.0 mm 0.00 in0.0 mm
10:33 AM 82.6°F28.1°C 73.1°F22.8°C 73% 2.6 mph NE4.2 kmh NE 4.0 mph6.4 kmh 30.09 in1019.0 mb 0.00 in0.0 mm 0.00 in0.0 mm 0.00 in0.0 mm
10:38 AM 83.6°F28.7°C 73.2°F22.9°C 71% 1.0 mph NE1.6 kmh NE 4.0 mph6.4 kmh 30.09 in1019.0 mb 0.00 in0.0 mm 0.00 in0.0 mm 0.00 in0.0 mm
10:43 AM 84.2°F29.0°C 72.8°F22.7°C 68% 1.0 mph NNW1.6 kmh NNW 4.0 mph6.4 kmh 30.09 in1019.0 mb 0.00 in0.0 mm 0.00 in0.0 mm 0.00 in0.0 mm
10:48 AM 85.0°F29.4°C 73.1°F22.8°C 67% 1.5 mph NE2.4 kmh NE 4.0 mph6.4 kmh 30.08 in1018.6 mb 0.00 in0.0 mm 0.00 in0.0 mm 0.00 in0.0 mm
10:53 AM 84.9°F29.4°C 73.0°F22.8°C 67% 1.5 mph N2.4 kmh N 5.0 mph8.0 kmh 30.08 in1018.6 mb 0.00 in0.0 mm 0.00 in0.0 mm 0.00 in0.0 mm
10:58 AM 85.4°F29.7°C 73.5°F23.1°C 67% 1.7 mph NE2.7 kmh NE 5.0 mph8.0 kmh 30.08 in1018.6 mb 0.00 in0.0 mm 0.00 in0.0 mm 0.00 in0.0 mm
11:03 AM 86.5°F30.3°C 73.8°F23.2°C 66% 1.0 mph NE1.6 kmh NE 5.0 mph8.0 kmh 30.08 in1018.6 mb 0.00 in0.0 mm 0.00 in0.0 mm 0.00 in0.0 mm
11:08 AM 86.5°F30.3°C 72.7°F22.6°C 63% 1.0 mph NW1.6 kmh NW 5.0 mph8.0 kmh 30.08 in1018.6 mb 0.00 in0.0 mm 0.00 in0.0 mm 0.00 in0.0 mm
11:13 AM 86.5°F30.3°C 73.2°F22.9°C 64% 1.0 mph S1.6 kmh S 4.0 mph6.4 kmh 30.08 in1018.6 mb 0.00 in0.0 mm 0.00 in0.0 mm 0.00 in0.0 mm
11:18 AM 87.4°F30.8°C 74.5°F23.6°C 65% 1.1 mph NNE1.8 kmh NNE 4.0 mph6.4 kmh 30.07 in1018.3 mb 0.00 in0.0 mm 0.00 in0.0 mm 0.00 in0.0 mm
11:23 AM 87.3°F30.7°C 73.2°F22.9°C 63% 2.5 mph ESE4.0 kmh ESE 4.0 mph6.4 kmh 30.07 in1018.3 mb 0.00 in0.0 mm 0.00 in0.0 mm 0.00 in0.0 mm
11:28 AM 87.7°F30.9°C 72.9°F22.7°C 61% 1.2 mph E1.9 kmh E 4.0 mph6.4 kmh 30.07 in1018.3 mb 0.00 in0.0 mm 0.00 in0.0 mm 0.00 in0.0 mm
11:33 AM 87.6°F30.9°C 72.0°F22.2°C 60% 1.6 mph SE2.6 kmh SE 4.0 mph6.4 kmh 30.07 in1018.3 mb 0.00 in0.0 mm 0.00 in0.0 mm 0.00 in0.0 mm
11:38 AM 88.0°F31.1°C 72.2°F22.3°C 59% 2.0 mph E3.2 kmh E 4.0 mph6.4 kmh 30.07 in1018.3 mb 0.00 in0.0 mm 0.00 in0.0 mm 0.00 in0.0 mm
11:43 AM 88.8°F31.6°C 71.9°F22.2°C 57% 1.1 mph SW1.8 kmh SW 4.0 mph6.4 kmh 30.06 in1017.9 mb 0.00 in0.0 mm 0.00 in0.0 mm 0.00 in0.0 mm
11:48 AM 89.5°F31.9°C 71.7°F22.1°C 56% 2.4 mph E3.9 kmh E 4.0 mph6.4 kmh 30.06 in1017.9 mb 0.00 in0.0 mm 0.00 in0.0 mm 0.00 in0.0 mm
11:53 AM 89.6°F32.0°C 73.1°F22.8°C 58% 1.4 mph ESE2.3 kmh ESE 4.0 mph6.4 kmh 30.06 in1017.9 mb 0.00 in0.0 mm 0.00 in0.0 mm 0.00 in0.0 mm
11:58 AM 89.9°F32.2°C 72.4°F22.4°C 56% 1.3 mph SE2.1 kmh SE 4.0 mph6.4 kmh 30.06 in1017.9 mb 0.00 in0.0 mm 0.00 in0.0 mm 0.00 in0.0 mm
12:03 PM 90.2°F32.3°C 72.6°F22.6°C 56% 2.6 mph E4.2 kmh E 6.0 mph9.7 kmh 30.05 in1017.6 mb 0.00 in0.0 mm 0.00 in0.0 mm 0.00 in0.0 mm
12:08 PM 89.5°F31.9°C 71.5°F21.9°C 55% 3.5 mph E5.6 kmh E 6.0 mph9.7 kmh 30.05 in1017.6 mb 0.00 in0.0 mm 0.00 in0.0 mm 0.00 in0.0 mm
12:13 PM 88.9°F31.6°C 71.4°F21.9°C 56% 3.4 mph SE5.5 kmh SE 7.0 mph11.3 kmh 30.05 in1017.6 mb 0.00 in0.0 mm 0.00 in0.0 mm 0.00 in0.0 mm
12:18 PM 89.3°F31.8°C 72.3°F22.4°C 57% 1.5 mph S2.4 kmh S 7.0 mph11.3 kmh 30.05 in1017.6 mb 0.00 in0.0 mm 0.00 in0.0 mm 0.00 in0.0 mm
12:23 PM 89.9°F32.2°C 70.5°F21.4°C 53% 2.5 mph SE4.0 kmh SE 7.0 mph11.3 kmh 30.04 in1017.3 mb 0.00 in0.0 mm 0.00 in0.0 mm 0.00 in0.0 mm
12:28 PM 89.5°F31.9°C 72.5°F22.5°C 57% 2.1 mph ESE3.4 kmh ESE 6.0 mph9.7 kmh 30.04 in1017.3 mb 0.00 in0.0 mm 0.00 in0.0 mm 0.00 in0.0 mm
12:33 PM 89.2°F31.8°C 71.2°F21.8°C 55% 1.2 mph NE1.9 kmh NE 7.0 mph11.3 kmh 30.03 in1016.9 mb 0.00 in0.0 mm 0.00 in0.0 mm 0.00 in0.0 mm
12:38 PM 89.8°F32.1°C 71.5°F21.9°C 55% 4.3 mph NE6.9 kmh NE 7.0 mph11.3 kmh 30.03 in1016.9 mb 0.00 in0.0 mm 0.00 in0.0 mm 0.00 in0.0 mm
12:43 PM 89.5°F31.9°C 70.3°F21.3°C 53% 2.7 mph E4.3 kmh E 7.0 mph11.3 kmh 30.03 in1016.9 mb 0.00 in0.0 mm 0.00 in0.0 mm 0.00 in0.0 mm
12:48 PM 88.8°F31.6°C 70.8°F21.6°C 55% 2.5 mph E4.0 kmh E 7.0 mph11.3 kmh 30.03 in1016.9 mb 0.00 in0.0 mm 0.00 in0.0 mm 0.00 in0.0 mm
12:53 PM 88.7°F31.5°C 70.2°F21.2°C 54% 2.4 mph ENE3.9 kmh ENE 7.0 mph11.3 kmh 30.02 in1016.6 mb 0.00 in0.0 mm 0.00 in0.0 mm 0.00 in0.0 mm
12:58 PM 88.5°F31.4°C 69.2°F20.7°C 53% 1.0 mph NE1.6 kmh NE 6.0 mph9.7 kmh 30.02 in1016.6 mb 0.00 in0.0 mm 0.00 in0.0 mm 0.00 in0.0 mm
01:03 PM 88.8°F31.6°C 70.2°F21.2°C 54% 1.0 mph NE1.6 kmh NE 6.0 mph9.7 kmh 30.02 in1016.6 mb 0.00 in0.0 mm 0.00 in0.0 mm 0.00 in0.0 mm
01:08 PM 88.9°F31.6°C 70.3°F21.3°C 54% Calm Calm 5.0 mph8.0 kmh 30.03 in1016.9 mb 0.00 in0.0 mm 0.00 in0.0 mm 0.00 in0.0 mm
01:13 PM 88.7°F31.5°C 69.6°F20.9°C 53% 1.0 mph SW1.6 kmh SW 5.0 mph8.0 kmh 30.03 in1016.9 mb 0.00 in0.0 mm 0.00 in0.0 mm 0.00 in0.0 mm
01:18 PM 86.8°F30.4°C 72.0°F22.2°C 61% 1.9 mph W3.1 kmh W 9.0 mph14.5 kmh 30.03 in1016.9 mb 0.00 in0.0 mm 0.00 in0.0 mm 0.00 in0.0 mm
01:23 PM 83.9°F28.8°C 71.6°F22.0°C 66% 2.1 mph W3.4 kmh W 9.0 mph14.5 kmh 30.02 in1016.6 mb 0.00 in0.0 mm 0.00 in0.0 mm 0.00 in0.0 mm
01:28 PM 83.0°F28.3°C 72.0°F22.2°C 69% 2.5 mph WSW4.0 kmh WSW 9.0 mph14.5 kmh 30.02 in1016.6 mb 0.00 in0.0 mm 0.00 in0.0 mm 0.00 in0.0 mm
01:33 PM 81.8°F27.7°C 72.1°F22.3°C 72% 2.3 mph WSW3.7 kmh WSW 9.0 mph14.5 kmh 30.02 in1016.6 mb 0.00 in0.0 mm 0.00 in0.0 mm 0.00 in0.0 mm
01:38 PM 80.8°F27.1°C 71.5°F21.9°C 73% 1.5 mph WSW2.4 kmh WSW 7.0 mph11.3 kmh 30.01 in1016.3 mb 0.00 in0.0 mm 0.00 in0.0 mm 0.00 in0.0 mm
01:43 PM 80.7°F27.1°C 70.4°F21.3°C 71% 1.0 mph W1.6 kmh W 6.0 mph9.7 kmh 30.01 in1016.3 mb 0.01 in0.3 mm 0.12 in3.0 mm 0.01 in0.3 mm
01:48 PM 81.0°F27.2°C 72.5°F22.5°C 75% Calm Calm 6.0 mph9.7 kmh 30.01 in1016.3 mb 0.01 in0.3 mm 0.00 in0.0 mm 0.01 in0.3 mm
01:53 PM 81.2°F27.3°C 72.5°F22.5°C 75% Calm Calm 4.0 mph6.4 kmh 30.01 in1016.3 mb 0.01 in0.3 mm 0.00 in0.0 mm 0.01 in0.3 mm
01:58 PM 81.8°F27.7°C 70.4°F21.3°C 68% Calm Calm 2.0 mph3.2 kmh 30.00 in1015.9 mb 0.01 in0.3 mm 0.00 in0.0 mm 0.01 in0.3 mm
02:04 PM 82.8°F28.2°C 73.1°F22.8°C 72% Calm Calm -- 30.00 in1015.9 mb 0.01 in0.3 mm 0.00 in0.0 mm 0.01 in0.3 mm
02:09 PM 83.6°F28.7°C 73.4°F23.0°C 71% 1.0 mph SW1.6 kmh SW 1.0 mph1.6 kmh 30.00 in1015.9 mb 0.01 in0.3 mm 0.00 in0.0 mm 0.01 in0.3 mm
02:13 PM 84.8°F29.3°C 73.3°F22.9°C 68% Calm Calm 1.0 mph1.6 kmh 29.99 in1015.6 mb 0.01 in0.3 mm 0.00 in0.0 mm 0.01 in0.3 mm
02:18 PM 86.4°F30.2°C 73.2°F22.9°C 65% Calm Calm 1.0 mph1.6 kmh 29.99 in1015.6 mb 0.01 in0.3 mm 0.00 in0.0 mm 0.01 in0.3 mm
02:24 PM 87.8°F31.0°C 73.0°F22.8°C 61% 1.0 mph SW1.6 kmh SW 1.0 mph1.6 kmh 29.99 in1015.6 mb 0.01 in0.3 mm 0.00 in0.0 mm 0.01 in0.3 mm
02:29 PM 88.6°F31.4°C 71.2°F21.8°C 56% 1.0 mph SE1.6 kmh SE 1.0 mph1.6 kmh 29.99 in1015.6 mb 0.01 in0.3 mm 0.00 in0.0 mm 0.01 in0.3 mm
02:34 PM 88.7°F31.5°C 72.0°F22.2°C 58% 1.0 mph SW1.6 kmh SW 1.0 mph1.6 kmh 30.00 in1015.9 mb 0.01 in0.3 mm 0.00 in0.0 mm 0.01 in0.3 mm
02:39 PM 87.8°F31.0°C 73.9°F23.3°C 63% 2.0 mph SW3.2 kmh SW 4.0 mph6.4 kmh 30.00 in1015.9 mb 0.01 in0.3 mm 0.00 in0.0 mm 0.01 in0.3 mm
02:44 PM 86.8°F30.4°C 74.1°F23.4°C 66% 1.6 mph WSW2.6 kmh WSW 5.0 mph8.0 kmh 30.00 in1015.9 mb 0.00 in0.0 mm 0.00 in0.0 mm 0.01 in0.3 mm
02:49 PM 86.1°F30.1°C 74.6°F23.7°C 68% 2.1 mph W3.4 kmh W 5.0 mph8.0 kmh 29.99 in1015.6 mb 0.00 in0.0 mm 0.00 in0.0 mm 0.01 in0.3 mm
02:54 PM 85.8°F29.9°C 74.3°F23.5°C 68% 1.2 mph WSW1.9 kmh WSW 5.0 mph8.0 kmh 29.99 in1015.6 mb 0.00 in0.0 mm 0.00 in0.0 mm 0.01 in0.3 mm
02:59 PM 86.1°F30.1°C 75.0°F23.9°C 69% Calm Calm 4.0 mph6.4 kmh 30.00 in1015.9 mb 0.00 in0.0 mm 0.00 in0.0 mm 0.01 in0.3 mm
03:02 PM 86.8°F30.4°C 73.6°F23.1°C 65% 1.0 mph WSW1.6 kmh WSW 3.0 mph4.8 kmh 30.00 in1015.9 mb 0.00 in0.0 mm 0.00 in0.0 mm 0.01 in0.3 mm
03:07 PM 87.0°F30.6°C 74.5°F23.6°C 66% 3.2 mph SW5.1 kmh SW 8.0 mph12.9 kmh 30.00 in1015.9 mb 0.00 in0.0 mm 0.00 in0.0 mm 0.01 in0.3 mm
03:12 PM 87.0°F30.6°C 75.0°F23.9°C 67% 1.6 mph SSW2.6 kmh SSW 8.0 mph12.9 kmh 30.00 in1015.9 mb 0.00 in0.0 mm 0.00 in0.0 mm 0.01 in0.3 mm
03:17 PM 87.3°F30.7°C 74.5°F23.6°C 66% 1.6 mph SSE2.6 kmh SSE 8.0 mph12.9 kmh 30.00 in1015.9 mb 0.00 in0.0 mm 0.00 in0.0 mm 0.01 in0.3 mm
03:22 PM 86.4°F30.2°C 74.4°F23.6°C 67% 1.7 mph SSW2.7 kmh SSW 8.0 mph12.9 kmh 30.00 in1015.9 mb 0.00 in0.0 mm 0.00 in0.0 mm 0.01 in0.3 mm
03:27 PM 85.6°F29.8°C 74.5°F23.6°C 69% 1.9 mph S3.1 kmh S 7.0 mph11.3 kmh 29.99 in1015.6 mb 0.00 in0.0 mm 0.00 in0.0 mm 0.01 in0.3 mm
03:32 PM 85.0°F29.4°C 74.8°F23.8°C 71% 1.8 mph SSE2.9 kmh SSE 5.0 mph8.0 kmh 29.98 in1015.2 mb 0.00 in0.0 mm 0.00 in0.0 mm 0.01 in0.3 mm
03:37 PM 84.3°F29.1°C 74.1°F23.4°C 71% 1.4 mph WSW2.3 kmh WSW 5.0 mph8.0 kmh 29.98 in1015.2 mb 0.00 in0.0 mm 0.00 in0.0 mm 0.01 in0.3 mm
03:42 PM 83.4°F28.6°C 73.4°F23.0°C 72% 2.4 mph WSW3.9 kmh WSW 6.0 mph9.7 kmh 29.99 in1015.6 mb 0.00 in0.0 mm 0.00 in0.0 mm 0.01 in0.3 mm
03:48 PM 83.3°F28.5°C 74.0°F23.3°C 73% 1.9 mph SW3.1 kmh SW 6.0 mph9.7 kmh 29.99 in1015.6 mb 0.00 in0.0 mm 0.00 in0.0 mm 0.01 in0.3 mm
03:52 PM 83.4°F28.6°C 74.0°F23.3°C 73% 1.5 mph S2.4 kmh S 6.0 mph9.7 kmh 29.99 in1015.6 mb 0.00 in0.0 mm 0.00 in0.0 mm 0.01 in0.3 mm
03:57 PM 83.4°F28.6°C 74.4°F23.6°C 74% 1.4 mph S2.3 kmh S 6.0 mph9.7 kmh 29.99 in1015.6 mb 0.00 in0.0 mm 0.00 in0.0 mm 0.01 in0.3 mm
04:03 PM 82.7°F28.2°C 73.4°F23.0°C 73% 2.9 mph SW4.7 kmh SW 6.0 mph9.7 kmh 29.99 in1015.6 mb 0.00 in0.0 mm 0.00 in0.0 mm 0.01 in0.3 mm
04:08 PM 82.1°F27.8°C 72.6°F22.6°C 73% 1.3 mph SW2.1 kmh SW 6.0 mph9.7 kmh 29.99 in1015.6 mb 0.00 in0.0 mm 0.00 in0.0 mm 0.01 in0.3 mm
04:13 PM 81.8°F27.7°C 72.1°F22.3°C 72% 1.9 mph SW3.1 kmh SW 6.0 mph9.7 kmh 29.99 in1015.6 mb 0.00 in0.0 mm 0.00 in0.0 mm 0.01 in0.3 mm
04:18 PM 81.7°F27.6°C 71.6°F22.0°C 71% 1.0 mph SW1.6 kmh SW 6.0 mph9.7 kmh 29.99 in1015.6 mb 0.00 in0.0 mm 0.00 in0.0 mm 0.01 in0.3 mm
04:23 PM 81.7°F27.6°C 71.6°F22.0°C 71% 1.6 mph SE2.6 kmh SE 4.0 mph6.4 kmh 29.98 in1015.2 mb 0.00 in0.0 mm 0.00 in0.0 mm 0.01 in0.3 mm
04:28 PM 81.5°F27.5°C 70.6°F21.4°C 69% 2.3 mph SW3.7 kmh SW 4.0 mph6.4 kmh 29.98 in1015.2 mb 0.00 in0.0 mm 0.00 in0.0 mm 0.01 in0.3 mm
04:33 PM 81.4°F27.4°C 70.9°F21.6°C 70% 1.7 mph SW2.7 kmh SW 4.0 mph6.4 kmh 29.98 in1015.2 mb 0.00 in0.0 mm 0.00 in0.0 mm 0.01 in0.3 mm
04:38 PM 81.1°F27.3°C 70.2°F21.2°C 69% 1.0 mph SW1.6 kmh SW 4.0 mph6.4 kmh 29.98 in1015.2 mb 0.00 in0.0 mm 0.00 in0.0 mm 0.01 in0.3 mm
04:43 PM 81.1°F27.3°C 70.2°F21.2°C 69% Calm Calm 4.0 mph6.4 kmh 29.98 in1015.2 mb 0.00 in0.0 mm 0.00 in0.0 mm 0.01 in0.3 mm
04:48 PM 81.4°F27.4°C 70.7°F21.5°C 70% 1.0 mph SW1.6 kmh SW 4.0 mph6.4 kmh 29.98 in1015.2 mb 0.00 in0.0 mm 0.00 in0.0 mm 0.01 in0.3 mm
04:53 PM 81.3°F27.4°C 70.0°F21.1°C 68% 1.0 mph SE1.6 kmh SE 2.0 mph3.2 kmh 29.97 in1014.9 mb 0.00 in0.0 mm 0.00 in0.0 mm 0.01 in0.3 mm
04:58 PM 81.2°F27.3°C 70.3°F21.3°C 69% 1.8 mph ESE2.9 kmh ESE 3.0 mph4.8 kmh 29.97 in1014.9 mb 0.00 in0.0 mm 0.00 in0.0 mm 0.01 in0.3 mm
05:03 PM 81.3°F27.4°C 70.8°F21.6°C 70% 1.0 mph ESE1.6 kmh ESE 3.0 mph4.8 kmh 29.97 in1014.9 mb 0.00 in0.0 mm 0.00 in0.0 mm 0.01 in0.3 mm
05:08 PM 81.4°F27.4°C 71.3°F21.8°C 71% 1.8 mph SE2.9 kmh SE 3.0 mph4.8 kmh 29.97 in1014.9 mb 0.00 in0.0 mm 0.00 in0.0 mm 0.01 in0.3 mm
05:13 PM 81.3°F27.4°C 71.2°F21.8°C 71% 5.1 mph ESE8.2 kmh ESE 8.0 mph12.9 kmh 29.99 in1015.6 mb 0.00 in0.0 mm 0.00 in0.0 mm 0.01 in0.3 mm
05:18 PM 81.2°F27.3°C 71.5°F21.9°C 72% 4.1 mph SE6.6 kmh SE 8.0 mph12.9 kmh 30.00 in1015.9 mb 0.00 in0.0 mm 0.00 in0.0 mm 0.01 in0.3 mm
05:23 PM 81.0°F27.2°C 71.3°F21.8°C 72% 2.1 mph SE3.4 kmh SE 8.0 mph12.9 kmh 29.99 in1015.6 mb 0.00 in0.0 mm 0.00 in0.0 mm 0.01 in0.3 mm
05:28 PM 81.0°F27.2°C 71.1°F21.7°C 72% 2.5 mph SE4.0 kmh SE 8.0 mph12.9 kmh 30.00 in1015.9 mb 0.00 in0.0 mm 0.00 in0.0 mm 0.01 in0.3 mm
05:33 PM 80.8°F27.1°C 70.5°F21.4°C 71% 5.7 mph SE9.2 kmh SE 9.0 mph14.5 kmh 30.00 in1015.9 mb 0.00 in0.0 mm 0.00 in0.0 mm 0.01 in0.3 mm
05:38 PM 80.4°F26.9°C 71.2°F21.8°C 73% 5.2 mph S8.4 kmh S 12.0 mph19.3 kmh 30.00 in1015.9 mb 0.00 in0.0 mm 0.00 in0.0 mm 0.01 in0.3 mm
05:43 PM 79.9°F26.6°C 71.1°F21.7°C 74% 2.0 mph SSE3.2 kmh SSE 12.0 mph19.3 kmh 30.00 in1015.9 mb 0.00 in0.0 mm 0.00 in0.0 mm 0.01 in0.3 mm
05:48 PM 79.7°F26.5°C 71.2°F21.8°C 75% 3.0 mph SSE4.8 kmh SSE 12.0 mph19.3 kmh 30.00 in1015.9 mb 0.00 in0.0 mm 0.00 in0.0 mm 0.01 in0.3 mm
05:53 PM 79.7°F26.5°C 71.2°F21.8°C 75% 3.3 mph SE5.3 kmh SE 11.0 mph17.7 kmh 29.99 in1015.6 mb 0.00 in0.0 mm 0.00 in0.0 mm 0.01 in0.3 mm
05:58 PM 79.4°F26.3°C 70.0°F21.1°C 73% 2.3 mph SE3.7 kmh SE 12.0 mph19.3 kmh 29.99 in1015.6 mb 0.00 in0.0 mm 0.00 in0.0 mm 0.01 in0.3 mm
06:03 PM 79.6°F26.4°C 70.2°F21.2°C 73% 3.2 mph SSE5.1 kmh SSE 14.0 mph22.5 kmh 29.99 in1015.6 mb 0.00 in0.0 mm 0.00 in0.0 mm 0.01 in0.3 mm
06:08 PM 79.9°F26.6°C 70.3°F21.3°C 72% 2.0 mph SSE3.2 kmh SSE 14.0 mph22.5 kmh 29.99 in1015.6 mb 0.00 in0.0 mm 0.00 in0.0 mm 0.01 in0.3 mm
06:13 PM 79.9°F26.6°C 70.3°F21.3°C 72% 3.3 mph SSE5.3 kmh SSE 14.0 mph22.5 kmh 29.99 in1015.6 mb 0.00 in0.0 mm 0.00 in0.0 mm 0.01 in0.3 mm
06:18 PM 79.5°F26.4°C 70.5°F21.4°C 74% 3.7 mph SE6.0 kmh SE 14.0 mph22.5 kmh 29.99 in1015.6 mb 0.00 in0.0 mm 0.00 in0.0 mm 0.01 in0.3 mm
06:23 PM 79.1°F26.2°C 70.7°F21.5°C 75% 2.7 mph SE4.3 kmh SE 9.0 mph14.5 kmh 29.99 in1015.6 mb 0.00 in0.0 mm 0.00 in0.0 mm 0.01 in0.3 mm
06:28 PM 78.6°F25.9°C 70.6°F21.4°C 76% 3.1 mph SE5.0 kmh SE 9.0 mph14.5 kmh 30.00 in1015.9 mb 0.00 in0.0 mm 0.00 in0.0 mm 0.01 in0.3 mm
06:33 PM 78.6°F25.9°C 70.9°F21.6°C 77% 1.1 mph S1.8 kmh S 9.0 mph14.5 kmh 30.00 in1015.9 mb 0.00 in0.0 mm 0.00 in0.0 mm 0.01 in0.3 mm
06:38 PM 78.7°F25.9°C 70.5°F21.4°C 76% 2.8 mph S4.5 kmh S 8.0 mph12.9 kmh 30.00 in1015.9 mb 0.00 in0.0 mm 0.00 in0.0 mm 0.01 in0.3 mm
06:43 PM 78.5°F25.8°C 70.5°F21.4°C 76% 2.4 mph SSE3.9 kmh SSE 8.0 mph12.9 kmh 30.00 in1015.9 mb 0.00 in0.0 mm 0.00 in0.0 mm 0.01 in0.3 mm
06:48 PM 78.5°F25.8°C 70.3°F21.3°C 76% 2.3 mph SSW3.7 kmh SSW 6.0 mph9.7 kmh 30.00 in1015.9 mb 0.00 in0.0 mm 0.00 in0.0 mm 0.01 in0.3 mm
06:53 PM 78.3°F25.7°C 70.6°F21.4°C 77% 2.5 mph SE4.0 kmh SE 6.0 mph9.7 kmh 30.00 in1015.9 mb 0.00 in0.0 mm 0.00 in0.0 mm 0.01 in0.3 mm
06:58 PM 78.1°F25.6°C 70.4°F21.3°C 77% Calm Calm 6.0 mph9.7 kmh 30.00 in1015.9 mb 0.00 in0.0 mm 0.00 in0.0 mm 0.01 in0.3 mm
07:03 PM 77.7°F25.4°C 70.1°F21.2°C 77% 1.7 mph SSE2.7 kmh SSE 6.0 mph9.7 kmh 30.00 in1015.9 mb 0.00 in0.0 mm 0.00 in0.0 mm 0.01 in0.3 mm
07:08 PM 77.2°F25.1°C 69.2°F20.7°C 76% 2.2 mph SSW3.5 kmh SSW 5.0 mph8.0 kmh 30.00 in1015.9 mb 0.00 in0.0 mm 0.00 in0.0 mm 0.01 in0.3 mm
07:13 PM 76.6°F24.8°C 68.5°F20.3°C 76% 3.6 mph SE5.8 kmh SE 7.0 mph11.3 kmh 30.00 in1015.9 mb 0.00 in0.0 mm 0.00 in0.0 mm 0.01 in0.3 mm
07:18 PM 76.2°F24.6°C 68.6°F20.3°C 77% 1.9 mph SSE3.1 kmh SSE 7.0 mph11.3 kmh 30.01 in1016.3 mb 0.00 in0.0 mm 0.00 in0.0 mm 0.01 in0.3 mm
07:23 PM 76.0°F24.4°C 68.8°F20.4°C 78% Calm Calm 7.0 mph11.3 kmh 30.01 in1016.3 mb 0.00 in0.0 mm 0.00 in0.0 mm 0.01 in0.3 mm
07:28 PM 75.8°F24.3°C 68.6°F20.3°C 78% 1.3 mph SE2.1 kmh SE 6.0 mph9.7 kmh 30.02 in1016.6 mb 0.00 in0.0 mm 0.00 in0.0 mm 0.01 in0.3 mm
07:33 PM 75.5°F24.2°C 68.3°F20.2°C 78% 1.3 mph ESE2.1 kmh ESE 4.0 mph6.4 kmh 30.01 in1016.3 mb 0.00 in0.0 mm 0.00 in0.0 mm 0.01 in0.3 mm
07:38 PM 75.3°F24.1°C 68.1°F20.1°C 78% 1.1 mph SE1.8 kmh SE 4.0 mph6.4 kmh 30.01 in1016.3 mb 0.00 in0.0 mm 0.00 in0.0 mm 0.01 in0.3 mm
07:43 PM 75.1°F23.9°C 67.9°F19.9°C 78% 1.0 mph SE1.6 kmh SE 2.0 mph3.2 kmh 30.01 in1016.3 mb 0.00 in0.0 mm 0.00 in0.0 mm 0.01 in0.3 mm
07:48 PM 74.9°F23.8°C 68.1°F20.1°C 79% 1.7 mph SSE2.7 kmh SSE 3.0 mph4.8 kmh 30.01 in1016.3 mb 0.00 in0.0 mm 0.00 in0.0 mm 0.01 in0.3 mm
07:53 PM 74.8°F23.8°C 68.0°F20.0°C 79% 1.3 mph ESE2.1 kmh ESE 3.0 mph4.8 kmh 30.01 in1016.3 mb 0.00 in0.0 mm 0.00 in0.0 mm 0.01 in0.3 mm
07:58 PM 74.7°F23.7°C 68.1°F20.1°C 80% Calm Calm 3.0 mph4.8 kmh 30.01 in1016.3 mb 0.00 in0.0 mm 0.00 in0.0 mm 0.01 in0.3 mm
08:03 PM 74.6°F23.7°C 68.1°F20.1°C 80% Calm Calm 3.0 mph4.8 kmh 30.01 in1016.3 mb 0.00 in0.0 mm 0.00 in0.0 mm 0.01 in0.3 mm
08:08 PM 74.5°F23.6°C 68.4°F20.2°C 81% Calm Calm 3.0 mph4.8 kmh 30.01 in1016.3 mb 0.00 in0.0 mm 0.00 in0.0 mm 0.01 in0.3 mm
08:13 PM 74.4°F23.6°C 68.3°F20.2°C 81% 1.0 mph SSE1.6 kmh SSE 2.0 mph3.2 kmh 30.02 in1016.6 mb 0.00 in0.0 mm 0.00 in0.0 mm 0.01 in0.3 mm
08:18 PM 74.3°F23.5°C 68.2°F20.1°C 81% Calm Calm 1.0 mph1.6 kmh 30.01 in1016.3 mb 0.00 in0.0 mm 0.00 in0.0 mm 0.01 in0.3 mm
08:23 PM 74.1°F23.4°C 68.3°F20.2°C 82% Calm Calm 1.0 mph1.6 kmh 30.02 in1016.6 mb 0.00 in0.0 mm 0.00 in0.0 mm 0.01 in0.3 mm
08:28 PM 73.9°F23.3°C 68.1°F20.1°C 82% Calm Calm 2.0 mph3.2 kmh 30.02 in1016.6 mb 0.00 in0.0 mm 0.00 in0.0 mm 0.01 in0.3 mm
08:33 PM 73.8°F23.2°C 68.4°F20.2°C 83% Calm Calm 2.0 mph3.2 kmh 30.02 in1016.6 mb 0.00 in0.0 mm 0.00 in0.0 mm 0.01 in0.3 mm
08:38 PM 73.8°F23.2°C 68.4°F20.2°C 83% Calm Calm 2.0 mph3.2 kmh 30.02 in1016.6 mb 0.00 in0.0 mm 0.00 in0.0 mm 0.01 in0.3 mm
08:43 PM 73.7°F23.2°C 68.3°F20.2°C 83% Calm Calm 2.0 mph3.2 kmh 30.02 in1016.6 mb 0.00 in0.0 mm 0.00 in0.0 mm 0.01 in0.3 mm
08:48 PM 73.6°F23.1°C 68.5°F20.3°C 84% Calm Calm 1.0 mph1.6 kmh 30.02 in1016.6 mb 0.00 in0.0 mm 0.00 in0.0 mm 0.01 in0.3 mm
08:53 PM 73.5°F23.1°C 68.4°F20.2°C 84% Calm Calm 1.0 mph1.6 kmh 30.02 in1016.6 mb 0.00 in0.0 mm 0.00 in0.0 mm 0.01 in0.3 mm
08:58 PM 73.4°F23.0°C 68.3°F20.2°C 84% Calm Calm 1.0 mph1.6 kmh 30.02 in1016.6 mb 0.00 in0.0 mm 0.00 in0.0 mm 0.01 in0.3 mm
09:02 PM 73.3°F22.9°C 68.2°F20.1°C 84% Calm Calm 1.0 mph1.6 kmh 30.02 in1016.6 mb 0.00 in0.0 mm 0.00 in0.0 mm 0.01 in0.3 mm
09:07 PM 73.2°F22.9°C 68.5°F20.3°C 85% Calm Calm 1.0 mph1.6 kmh 30.02 in1016.6 mb 0.00 in0.0 mm 0.00 in0.0 mm 0.01 in0.3 mm
09:12 PM 73.1°F22.8°C 68.4°F20.2°C 85% Calm Calm -- 30.03 in1016.9 mb 0.00 in0.0 mm 0.00 in0.0 mm 0.01 in0.3 mm
09:17 PM 73.1°F22.8°C 68.4°F20.2°C 85% Calm Calm -- 30.03 in1016.9 mb 0.00 in0.0 mm 0.00 in0.0 mm 0.01 in0.3 mm
09:22 PM 73.0°F22.8°C 68.3°F20.2°C 85% Calm Calm -- 30.03 in1016.9 mb 0.00 in0.0 mm 0.00 in0.0 mm 0.01 in0.3 mm
09:27 PM 73.0°F22.8°C 68.2°F20.1°C 85% Calm Calm -- 30.03 in1016.9 mb 0.00 in0.0 mm 0.00 in0.0 mm 0.01 in0.3 mm
09:32 PM 73.1°F22.8°C 68.4°F20.2°C 85% Calm Calm -- 30.03 in1016.9 mb 0.00 in0.0 mm 0.00 in0.0 mm 0.01 in0.3 mm
09:37 PM 73.3°F22.9°C 68.5°F20.3°C 85% 1.2 mph NE1.9 kmh NE 2.0 mph3.2 kmh 30.04 in1017.3 mb 0.00 in0.0 mm 0.00 in0.0 mm 0.01 in0.3 mm
09:42 PM 73.5°F23.1°C 68.7°F20.4°C 85% 1.6 mph NE2.6 kmh NE 3.0 mph4.8 kmh 30.05 in1017.6 mb 0.00 in0.0 mm 0.00 in0.0 mm 0.01 in0.3 mm
09:47 PM 73.4°F23.0°C 68.6°F20.3°C 85% 2.5 mph NE4.0 kmh NE 4.0 mph6.4 kmh 30.05 in1017.6 mb 0.00 in0.0 mm 0.00 in0.0 mm 0.01 in0.3 mm
09:52 PM 73.2°F22.9°C 68.8°F20.4°C 86% 2.1 mph NE3.4 kmh NE 4.0 mph6.4 kmh 30.05 in1017.6 mb 0.00 in0.0 mm 0.00 in0.0 mm 0.01 in0.3 mm
09:57 PM 73.1°F22.8°C 68.7°F20.4°C 86% Calm Calm 5.0 mph8.0 kmh 30.06 in1017.9 mb 0.00 in0.0 mm 0.00 in0.0 mm 0.01 in0.3 mm
10:02 PM 73.1°F22.8°C 69.0°F20.6°C 87% Calm Calm 5.0 mph8.0 kmh 30.05 in1017.6 mb 0.00 in0.0 mm 0.00 in0.0 mm 0.01 in0.3 mm
10:07 PM 73.1°F22.8°C 69.0°F20.6°C 87% Calm Calm 5.0 mph8.0 kmh 30.05 in1017.6 mb 0.00 in0.0 mm 0.00 in0.0 mm 0.01 in0.3 mm
10:12 PM 73.2°F22.9°C 69.1°F20.6°C 87% Calm Calm 5.0 mph8.0 kmh 30.05 in1017.6 mb 0.00 in0.0 mm 0.00 in0.0 mm 0.01 in0.3 mm
10:17 PM 73.1°F22.8°C 69.0°F20.6°C 87% 2.1 mph NE3.4 kmh NE 4.0 mph6.4 kmh 30.05 in1017.6 mb 0.00 in0.0 mm 0.00 in0.0 mm 0.01 in0.3 mm
10:22 PM 73.1°F22.8°C 69.0°F20.6°C 87% 1.0 mph NE1.6 kmh NE 4.0 mph6.4 kmh 30.05 in1017.6 mb 0.00 in0.0 mm 0.00 in0.0 mm 0.01 in0.3 mm
10:27 PM 73.1°F22.8°C 69.0°F20.6°C 87% 1.0 mph NE1.6 kmh NE 4.0 mph6.4 kmh 30.05 in1017.6 mb 0.00 in0.0 mm 0.00 in0.0 mm 0.01 in0.3 mm
10:32 PM 73.0°F22.8°C 68.9°F20.5°C 87% Calm Calm 4.0 mph6.4 kmh 30.05 in1017.6 mb 0.00 in0.0 mm 0.00 in0.0 mm 0.01 in0.3 mm
10:37 PM 73.0°F22.8°C 68.9°F20.5°C 87% 1.0 mph NE1.6 kmh NE 1.0 mph1.6 kmh 30.06 in1017.9 mb 0.00 in0.0 mm 0.00 in0.0 mm 0.01 in0.3 mm
10:42 PM 73.0°F22.8°C 68.9°F20.5°C 87% 1.8 mph NE2.9 kmh NE 4.0 mph6.4 kmh 30.06 in1017.9 mb 0.00 in0.0 mm 0.00 in0.0 mm 0.01 in0.3 mm
10:47 PM 73.1°F22.8°C 69.0°F20.6°C 87% 1.0 mph NE1.6 kmh NE 4.0 mph6.4 kmh 30.06 in1017.9 mb 0.00 in0.0 mm 0.00 in0.0 mm 0.01 in0.3 mm
10:52 PM 73.1°F22.8°C 69.0°F20.6°C 87% 1.3 mph NE2.1 kmh NE 4.0 mph6.4 kmh 30.06 in1017.9 mb 0.00 in0.0 mm 0.00 in0.0 mm 0.01 in0.3 mm
10:57 PM 73.1°F22.8°C 69.0°F20.6°C 87% Calm Calm 4.0 mph6.4 kmh 30.06 in1017.9 mb 0.00 in0.0 mm 0.00 in0.0 mm 0.01 in0.3 mm
11:02 PM 72.9°F22.7°C 68.8°F20.4°C 87% 1.0 mph NE1.6 kmh NE 2.0 mph3.2 kmh 30.06 in1017.9 mb 0.00 in0.0 mm 0.00 in0.0 mm 0.01 in0.3 mm
11:07 PM 72.9°F22.7°C 68.8°F20.4°C 87% 1.0 mph N1.6 kmh N 2.0 mph3.2 kmh 30.06 in1017.9 mb 0.00 in0.0 mm 0.00 in0.0 mm 0.01 in0.3 mm
11:12 PM 72.9°F22.7°C 69.1°F20.6°C 88% 1.3 mph NNE2.1 kmh NNE 3.0 mph4.8 kmh 30.06 in1017.9 mb 0.00 in0.0 mm 0.00 in0.0 mm 0.01 in0.3 mm
11:17 PM 73.0°F22.8°C 69.2°F20.7°C 88% 1.5 mph NNE2.4 kmh NNE 3.0 mph4.8 kmh 30.06 in1017.9 mb 0.00 in0.0 mm 0.00 in0.0 mm 0.01 in0.3 mm
11:22 PM 73.0°F22.8°C 68.9°F20.5°C 87% Calm Calm 3.0 mph4.8 kmh 30.06 in1017.9 mb 0.00 in0.0 mm 0.00 in0.0 mm 0.01 in0.3 mm
11:27 PM 72.9°F22.7°C 68.8°F20.4°C 87% 1.0 mph NE1.6 kmh NE 3.0 mph4.8 kmh 30.06 in1017.9 mb 0.00 in0.0 mm 0.00 in0.0 mm 0.01 in0.3 mm
11:32 PM 72.9°F22.7°C 68.8°F20.4°C 87% Calm Calm 3.0 mph4.8 kmh 30.06 in1017.9 mb 0.00 in0.0 mm 0.00 in0.0 mm 0.01 in0.3 mm
11:37 PM 72.9°F22.7°C 68.8°F20.4°C 87% Calm Calm 1.0 mph1.6 kmh 30.06 in1017.9 mb 0.00 in0.0 mm 0.00 in0.0 mm 0.01 in0.3 mm
11:42 PM 73.0°F22.8°C 68.9°F20.5°C 87% 1.4 mph NE2.3 kmh NE 2.0 mph3.2 kmh 30.06 in1017.9 mb 0.00 in0.0 mm 0.00 in0.0 mm 0.01 in0.3 mm
11:47 PM 73.1°F22.8°C 69.3°F20.7°C 88% 1.1 mph N1.8 kmh N 2.0 mph3.2 kmh 30.07 in1018.3 mb 0.00 in0.0 mm 0.00 in0.0 mm 0.01 in0.3 mm
11:52 PM 73.2°F22.9°C 69.4°F20.8°C 88% 1.2 mph NE1.9 kmh NE 4.0 mph6.4 kmh 30.06 in1017.9 mb 0.00 in0.0 mm 0.00 in0.0 mm 0.01 in0.3 mm
11:57 PM 73.1°F22.8°C 69.3°F20.7°C 88% 3.6 mph NE5.8 kmh NE 6.0 mph9.7 kmh 30.06 in1017.9 mb 0.00 in0.0 mm 0.00 in0.0 mm 0.01 in0.3 mm